sensor_id;sensor_type;location;lat;lon;timestamp;pressure;altitude;pressure_sealevel;temperature;humidity
13050;BME280;6591;51.446;5.404;2023-11-21T00:00:35;100766.72;;;13.81;58.14
13050;BME280;6591;51.446;5.404;2023-11-21T00:03:02;100763.94;;;13.82;58.27
13050;BME280;6591;51.446;5.404;2023-11-21T00:05:31;100766.50;;;13.84;58.02
13050;BME280;6591;51.446;5.404;2023-11-21T00:07:58;100774.44;;;13.85;57.78
13050;BME280;6591;51.446;5.404;2023-11-21T00:10:25;100772.72;;;13.84;57.85
13050;BME280;6591;51.446;5.404;2023-11-21T00:12:53;100776.31;;;13.83;57.48
13050;BME280;6591;51.446;5.404;2023-11-21T00:15:22;100777.38;;;13.81;57.67
13050;BME280;6591;51.446;5.404;2023-11-21T00:17:49;100780.22;;;13.78;57.33
13050;BME280;6591;51.446;5.404;2023-11-21T00:20:16;100781.38;;;13.74;57.11
13050;BME280;6591;51.446;5.404;2023-11-21T00:22:43;100775.44;;;13.69;56.96
13050;BME280;6591;51.446;5.404;2023-11-21T00:25:11;100786.38;;;13.64;56.74
13050;BME280;6591;51.446;5.404;2023-11-21T00:27:41;100776.00;;;13.60;57.03
13050;BME280;6591;51.446;5.404;2023-11-21T00:30:09;100773.59;;;13.55;56.81
13050;BME280;6591;51.446;5.404;2023-11-21T00:32:37;100776.63;;;13.49;56.55
13050;BME280;6591;51.446;5.404;2023-11-21T00:35:05;100772.31;;;13.46;56.64
13050;BME280;6591;51.446;5.404;2023-11-21T00:37:33;100784.31;;;13.39;56.55
13050;BME280;6591;51.446;5.404;2023-11-21T00:40:00;100769.50;;;13.34;56.56
13050;BME280;6591;51.446;5.404;2023-11-21T00:42:33;100777.00;;;13.27;56.30
13050;BME280;6591;51.446;5.404;2023-11-21T00:45:00;100780.97;;;13.20;56.50
13050;BME280;6591;51.446;5.404;2023-11-21T00:47:27;100785.81;;;13.13;56.16
13050;BME280;6591;51.446;5.404;2023-11-21T00:49:55;100787.06;;;13.06;55.96
13050;BME280;6591;51.446;5.404;2023-11-21T00:52:22;100789.38;;;12.97;56.14
13050;BME280;6591;51.446;5.404;2023-11-21T00:54:50;100797.63;;;12.92;56.27
13050;BME280;6591;51.446;5.404;2023-11-21T00:57:17;100796.31;;;12.84;56.09
13050;BME280;6591;51.446;5.404;2023-11-21T00:59:44;100795.91;;;12.76;55.90
13050;BME280;6591;51.446;5.404;2023-11-21T01:02:11;100799.84;;;12.68;55.65
13050;BME280;6591;51.446;5.404;2023-11-21T01:04:38;100802.94;;;12.61;55.47
13050;BME280;6591;51.446;5.404;2023-11-21T01:07:05;100808.72;;;12.52;55.36
13050;BME280;6591;51.446;5.404;2023-11-21T01:09:32;100808.38;;;12.42;55.21
13050;BME280;6591;51.446;5.404;2023-11-21T01:11:59;100809.66;;;12.35;55.78
13050;BME280;6591;51.446;5.404;2023-11-21T01:14:27;100808.31;;;12.26;55.58
13050;BME280;6591;51.446;5.404;2023-11-21T01:16:54;100820.25;;;12.19;55.93
13050;BME280;6591;51.446;5.404;2023-11-21T01:19:22;100820.56;;;12.13;55.65
13050;BME280;6591;51.446;5.404;2023-11-21T01:21:49;100819.09;;;12.08;55.68
13050;BME280;6591;51.446;5.404;2023-11-21T01:24:16;100831.78;;;12.03;55.73
13050;BME280;6591;51.446;5.404;2023-11-21T01:26:43;100828.63;;;11.95;55.74
13050;BME280;6591;51.446;5.404;2023-11-21T01:29:13;100825.34;;;11.89;55.57
13050;BME280;6591;51.446;5.404;2023-11-21T01:31:41;100826.38;;;11.87;56.11
13050;BME280;6591;51.446;5.404;2023-11-21T01:34:09;100835.38;;;11.84;56.58
13050;BME280;6591;51.446;5.404;2023-11-21T01:36:36;100838.19;;;11.81;56.57
13050;BME280;6591;51.446;5.404;2023-11-21T01:39:03;100847.91;;;11.82;56.60
13050;BME280;6591;51.446;5.404;2023-11-21T01:41:35;100843.50;;;11.81;57.20
13050;BME280;6591;51.446;5.404;2023-11-21T01:44:02;100850.38;;;11.85;57.84
13050;BME280;6591;51.446;5.404;2023-11-21T01:46:30;100853.84;;;11.87;57.98
13050;BME280;6591;51.446;5.404;2023-11-21T01:48:57;100858.84;;;11.94;58.13
13050;BME280;6591;51.446;5.404;2023-11-21T01:51:25;100851.56;;;11.97;58.70
13050;BME280;6591;51.446;5.404;2023-11-21T01:53:55;100853.94;;;12.03;58.89
13050;BME280;6591;51.446;5.404;2023-11-21T01:56:23;100845.53;;;12.11;58.69
13050;BME280;6591;51.446;5.404;2023-11-21T01:58:50;100849.59;;;12.18;58.74
13050;BME280;6591;51.446;5.404;2023-11-21T02:01:18;100848.34;;;12.25;59.54
13050;BME280;6591;51.446;5.404;2023-11-21T02:03:46;100846.94;;;12.35;59.61
13050;BME280;6591;51.446;5.404;2023-11-21T02:06:13;100841.13;;;12.44;59.62
13050;BME280;6591;51.446;5.404;2023-11-21T02:08:40;100843.34;;;12.52;59.84
13050;BME280;6591;51.446;5.404;2023-11-21T02:11:11;100840.22;;;12.61;59.20
13050;BME280;6591;51.446;5.404;2023-11-21T02:13:41;100848.66;;;12.69;59.31
13050;BME280;6591;51.446;5.404;2023-11-21T02:16:12;100852.72;;;12.76;59.34
13050;BME280;6591;51.446;5.404;2023-11-21T02:18:40;100848.75;;;12.83;58.72
13050;BME280;6591;51.446;5.404;2023-11-21T02:21:08;100855.56;;;12.89;58.96
13050;BME280;6591;51.446;5.404;2023-11-21T02:23:37;100860.56;;;12.95;58.92
13050;BME280;6591;51.446;5.404;2023-11-21T02:26:05;100870.88;;;13.01;58.81
13050;BME280;6591;51.446;5.404;2023-11-21T02:28:32;100868.03;;;13.04;58.81
13050;BME280;6591;51.446;5.404;2023-11-21T02:31:00;100875.88;;;13.07;58.47
13050;BME280;6591;51.446;5.404;2023-11-21T02:33:27;100873.03;;;13.10;58.53
13050;BME280;6591;51.446;5.404;2023-11-21T02:35:54;100880.03;;;13.12;58.67
13050;BME280;6591;51.446;5.404;2023-11-21T02:38:22;100877.28;;;13.14;59.00
13050;BME280;6591;51.446;5.404;2023-11-21T02:40:49;100879.00;;;13.15;58.71
13050;BME280;6591;51.446;5.404;2023-11-21T02:43:16;100887.78;;;13.17;58.50
13050;BME280;6591;51.446;5.404;2023-11-21T02:45:44;100891.22;;;13.19;59.15
13050;BME280;6591;51.446;5.404;2023-11-21T02:48:12;100885.72;;;13.22;58.79
13050;BME280;6591;51.446;5.404;2023-11-21T02:50:39;100881.16;;;13.24;58.49
13050;BME280;6591;51.446;5.404;2023-11-21T02:53:07;100876.53;;;13.28;58.45
13050;BME280;6591;51.446;5.404;2023-11-21T02:55:34;100884.34;;;13.31;58.58
13050;BME280;6591;51.446;5.404;2023-11-21T02:58:03;100882.53;;;13.31;58.32
13050;BME280;6591;51.446;5.404;2023-11-21T03:00:30;100883.22;;;13.35;58.76
13050;BME280;6591;51.446;5.404;2023-11-21T03:02:59;100880.47;;;13.36;58.64
13050;BME280;6591;51.446;5.404;2023-11-21T03:05:27;100883.91;;;13.38;58.39
13050;BME280;6591;51.446;5.404;2023-11-21T03:07:56;100877.66;;;13.39;58.40
13050;BME280;6591;51.446;5.404;2023-11-21T03:10:25;100875.72;;;13.41;58.37
13050;BME280;6591;51.446;5.404;2023-11-21T03:12:52;100874.78;;;13.42;58.36
13050;BME280;6591;51.446;5.404;2023-11-21T03:15:19;100880.06;;;13.44;58.02
13050;BME280;6591;51.446;5.404;2023-11-21T03:17:46;100882.59;;;13.45;58.53
13050;BME280;6591;51.446;5.404;2023-11-21T03:20:16;100883.47;;;13.46;58.38
13050;BME280;6591;51.446;5.404;2023-11-21T03:22:43;100886.06;;;13.47;57.92
13050;BME280;6591;51.446;5.404;2023-11-21T03:25:10;100885.19;;;13.47;58.36
13050;BME280;6591;51.446;5.404;2023-11-21T03:27:38;100891.41;;;13.47;58.18
13050;BME280;6591;51.446;5.404;2023-11-21T03:30:09;100889.66;;;13.46;58.07
13050;BME280;6591;51.446;5.404;2023-11-21T03:32:37;100898.53;;;13.47;57.84
13050;BME280;6591;51.446;5.404;2023-11-21T03:35:04;100896.72;;;13.47;57.79
13050;BME280;6591;51.446;5.404;2023-11-21T03:37:33;100898.63;;;13.45;57.81
13050;BME280;6591;51.446;5.404;2023-11-21T03:40:00;100897.78;;;13.45;58.20
13050;BME280;6591;51.446;5.404;2023-11-21T03:42:28;100897.84;;;13.43;57.67
13050;BME280;6591;51.446;5.404;2023-11-21T03:44:57;100901.38;;;13.44;57.68
13050;BME280;6591;51.446;5.404;2023-11-21T03:47:26;100898.78;;;13.42;57.65
13050;BME280;6591;51.446;5.404;2023-11-21T03:49:53;100905.06;;;13.41;57.83
13050;BME280;6591;51.446;5.404;2023-11-21T03:52:20;100896.22;;;13.41;57.54
13050;BME280;6591;51.446;5.404;2023-11-21T03:54:47;100906.00;;;13.40;57.83
13050;BME280;6591;51.446;5.404;2023-11-21T03:57:14;100904.41;;;13.38;57.46
13050;BME280;6591;51.446;5.404;2023-11-21T03:59:43;100905.41;;;13.35;57.74
13050;BME280;6591;51.446;5.404;2023-11-21T04:02:10;100913.59;;;13.32;57.74
13050;BME280;6591;51.446;5.404;2023-11-21T04:04:37;100911.00;;;13.31;57.74
13050;BME280;6591;51.446;5.404;2023-11-21T04:07:04;100912.06;;;13.28;57.82
13050;BME280;6591;51.446;5.404;2023-11-21T04:09:32;100921.00;;;13.27;57.85
13050;BME280;6591;51.446;5.404;2023-11-21T04:11:59;100920.31;;;13.24;57.69
13050;BME280;6591;51.446;5.404;2023-11-21T04:14:27;100919.53;;;13.22;57.93
13050;BME280;6591;51.446;5.404;2023-11-21T04:16:54;100930.13;;;13.23;58.10
13050;BME280;6591;51.446;5.404;2023-11-21T04:19:22;100937.25;;;13.23;57.92
13050;BME280;6591;51.446;5.404;2023-11-21T04:21:49;100934.47;;;13.24;57.79
13050;BME280;6591;51.446;5.404;2023-11-21T04:24:16;100944.19;;;13.25;58.00
13050;BME280;6591;51.446;5.404;2023-11-21T04:26:46;100941.53;;;13.25;58.17
13050;BME280;6591;51.446;5.404;2023-11-21T04:29:14;100944.91;;;13.29;58.04
13050;BME280;6591;51.446;5.404;2023-11-21T04:31:41;100950.06;;;13.32;57.99
13050;BME280;6591;51.446;5.404;2023-11-21T04:34:09;100953.59;;;13.32;58.20
13050;BME280;6591;51.446;5.404;2023-11-21T04:36:36;100961.41;;;13.35;58.22
13050;BME280;6591;51.446;5.404;2023-11-21T04:39:03;100959.72;;;13.34;58.14
13050;BME280;6591;51.446;5.404;2023-11-21T04:41:30;100962.38;;;13.34;58.09
13050;BME280;6591;51.446;5.404;2023-11-21T04:43:58;100964.88;;;13.37;57.83
13050;BME280;6591;51.446;5.404;2023-11-21T04:46:28;100961.25;;;13.38;58.03
13050;BME280;6591;51.446;5.404;2023-11-21T04:48:55;100965.66;;;13.39;58.00
13050;BME280;6591;51.446;5.404;2023-11-21T04:51:22;100969.16;;;13.40;58.06
13050;BME280;6591;51.446;5.404;2023-11-21T04:53:49;100977.16;;;13.40;58.38
13050;BME280;6591;51.446;5.404;2023-11-21T04:56:19;100979.75;;;13.41;58.08
13050;BME280;6591;51.446;5.404;2023-11-21T04:58:46;100977.94;;;13.42;58.06
13050;BME280;6591;51.446;5.404;2023-11-21T05:01:13;100980.53;;;13.43;58.12
13050;BME280;6591;51.446;5.404;2023-11-21T05:03:41;100987.59;;;13.44;58.05
13050;BME280;6591;51.446;5.404;2023-11-21T05:06:11;100984.94;;;13.44;58.13
13050;BME280;6591;51.446;5.404;2023-11-21T05:08:38;100987.50;;;13.46;58.22
13050;BME280;6591;51.446;5.404;2023-11-21T05:11:05;100990.09;;;13.47;58.01
13050;BME280;6591;51.446;5.404;2023-11-21T05:13:34;100992.56;;;13.50;58.00
13050;BME280;6591;51.446;5.404;2023-11-21T05:16:02;100983.63;;;13.51;58.34
13050;BME280;6591;51.446;5.404;2023-11-21T05:18:31;100979.09;;;13.53;58.29
13050;BME280;6591;51.446;5.404;2023-11-21T05:20:58;100981.50;;;13.58;58.13
13050;BME280;6591;51.446;5.404;2023-11-21T05:23:25;100983.97;;;13.61;58.08
13050;BME280;6591;51.446;5.404;2023-11-21T05:25:52;100987.38;;;13.65;58.29
13050;BME280;6591;51.446;5.404;2023-11-21T05:28:19;100990.78;;;13.67;58.27
13050;BME280;6591;51.446;5.404;2023-11-21T05:30:46;100993.44;;;13.67;58.13
13050;BME280;6591;51.446;5.404;2023-11-21T05:33:14;101002.25;;;13.69;58.34
13050;BME280;6591;51.446;5.404;2023-11-21T05:35:41;101011.88;;;13.71;58.09
13050;BME280;6591;51.446;5.404;2023-11-21T05:38:08;101018.00;;;13.73;58.04
13050;BME280;6591;51.446;5.404;2023-11-21T05:40:35;101016.19;;;13.74;58.13
13050;BME280;6591;51.446;5.404;2023-11-21T05:43:04;101024.13;;;13.75;58.50
13050;BME280;6591;51.446;5.404;2023-11-21T05:45:32;101017.75;;;13.78;58.31
13050;BME280;6591;51.446;5.404;2023-11-21T05:47:59;101026.47;;;13.81;58.23
13050;BME280;6591;51.446;5.404;2023-11-21T05:50:26;101031.78;;;13.81;58.13
13050;BME280;6591;51.446;5.404;2023-11-21T05:52:53;101033.25;;;13.87;58.21
13050;BME280;6591;51.446;5.404;2023-11-21T05:55:23;101033.25;;;13.87;58.30
13050;BME280;6591;51.446;5.404;2023-11-21T05:57:53;101032.28;;;13.88;58.28
13050;BME280;6591;51.446;5.404;2023-11-21T06:00:20;101035.75;;;13.90;58.47
13050;BME280;6591;51.446;5.404;2023-11-21T06:02:53;101041.88;;;13.92;58.16
13050;BME280;6591;51.446;5.404;2023-11-21T06:05:26;101045.31;;;13.94;58.12
13050;BME280;6591;51.446;5.404;2023-11-21T06:07:55;101039.81;;;13.97;58.31
13050;BME280;6591;51.446;5.404;2023-11-21T06:10:26;101049.34;;;14.01;58.24
13050;BME280;6591;51.446;5.404;2023-11-21T06:12:55;101056.44;;;14.02;58.08
13050;BME280;6591;51.446;5.404;2023-11-21T06:15:22;101055.31;;;14.06;58.11
13050;BME280;6591;51.446;5.404;2023-11-21T06:17:51;101057.03;;;14.07;58.13
13050;BME280;6591;51.446;5.404;2023-11-21T06:20:22;101060.44;;;14.09;58.01
13050;BME280;6591;51.446;5.404;2023-11-21T06:22:51;101055.97;;;14.10;58.23
13050;BME280;6591;51.446;5.404;2023-11-21T06:25:18;101063.03;;;14.11;58.35
13050;BME280;6591;51.446;5.404;2023-11-21T06:27:47;101063.91;;;14.11;57.79
13050;BME280;6591;51.446;5.404;2023-11-21T06:30:15;101069.25;;;14.11;58.18
13050;BME280;6591;51.446;5.404;2023-11-21T06:32:43;101072.69;;;14.13;57.98
13050;BME280;6591;51.446;5.404;2023-11-21T06:35:14;101063.72;;;14.14;58.13
13050;BME280;6591;51.446;5.404;2023-11-21T06:37:43;101071.66;;;14.16;57.94
13050;BME280;6591;51.446;5.404;2023-11-21T06:40:17;101071.66;;;14.16;58.10
13050;BME280;6591;51.446;5.404;2023-11-21T06:42:48;101080.47;;;14.18;57.91
13050;BME280;6591;51.446;5.404;2023-11-21T06:45:17;101075.97;;;14.18;58.17
13050;BME280;6591;51.446;5.404;2023-11-21T06:47:45;101080.34;;;14.19;57.99
13050;BME280;6591;51.446;5.404;2023-11-21T06:50:12;101080.28;;;14.21;58.51
13050;BME280;6591;51.446;5.404;2023-11-21T06:52:40;101084.47;;;14.25;58.57
13050;BME280;6591;51.446;5.404;2023-11-21T06:55:07;101081.72;;;14.26;58.64
13050;BME280;6591;51.446;5.404;2023-11-21T06:57:36;101093.97;;;14.30;58.61
13050;BME280;6591;51.446;5.404;2023-11-21T07:00:06;101096.47;;;14.33;58.72
13050;BME280;6591;51.446;5.404;2023-11-21T07:02:37;101098.09;;;14.36;58.28
13050;BME280;6591;51.446;5.404;2023-11-21T07:05:05;101101.47;;;14.39;58.26
13050;BME280;6591;51.446;5.404;2023-11-21T07:07:33;101099.59;;;14.41;58.26
13050;BME280;6591;51.446;5.404;2023-11-21T07:10:04;101105.63;;;14.45;58.11
13050;BME280;6591;51.446;5.404;2023-11-21T07:12:32;101106.47;;;14.46;58.53
13050;BME280;6591;51.446;5.404;2023-11-21T07:15:00;101110.88;;;14.47;58.25
13050;BME280;6591;51.446;5.404;2023-11-21T07:17:27;101111.66;;;14.49;58.22
13050;BME280;6591;51.446;5.404;2023-11-21T07:19:54;101120.44;;;14.51;58.38
13050;BME280;6591;51.446;5.404;2023-11-21T07:22:22;101128.38;;;14.52;58.19
13050;BME280;6591;51.446;5.404;2023-11-21T07:24:49;101122.00;;;14.55;58.21
13050;BME280;6591;51.446;5.404;2023-11-21T07:27:18;101127.34;;;14.55;58.21
13050;BME280;6591;51.446;5.404;2023-11-21T07:29:45;101138.72;;;14.58;58.17
13050;BME280;6591;51.446;5.404;2023-11-21T07:32:13;101148.34;;;14.61;58.22
13050;BME280;6591;51.446;5.404;2023-11-21T07:34:41;101151.81;;;14.63;58.25
13050;BME280;6591;51.446;5.404;2023-11-21T07:37:08;101152.47;;;14.66;58.72
13050;BME280;6591;51.446;5.404;2023-11-21T07:39:35;101160.22;;;14.71;58.77
13050;BME280;6591;51.446;5.404;2023-11-21T07:42:03;101161.81;;;14.75;58.76
13050;BME280;6591;51.446;5.404;2023-11-21T07:44:31;101158.88;;;14.79;58.74
13050;BME280;6591;51.446;5.404;2023-11-21T07:46:58;101159.38;;;14.86;58.92
13050;BME280;6591;51.446;5.404;2023-11-21T07:49:25;101161.66;;;14.92;59.16
13050;BME280;6591;51.446;5.404;2023-11-21T07:51:53;101168.47;;;14.98;58.86
13050;BME280;6591;51.446;5.404;2023-11-21T07:54:20;101170.72;;;15.05;58.71
13050;BME280;6591;51.446;5.404;2023-11-21T07:56:48;101174.94;;;15.09;58.76
13050;BME280;6591;51.446;5.404;2023-11-21T07:59:15;101180.88;;;15.14;58.63
13050;BME280;6591;51.446;5.404;2023-11-21T08:01:42;101180.59;;;15.19;58.67
13050;BME280;6591;51.446;5.404;2023-11-21T08:04:10;101184.91;;;15.21;58.53
13050;BME280;6591;51.446;5.404;2023-11-21T08:06:37;101179.38;;;15.24;58.57
13050;BME280;6591;51.446;5.404;2023-11-21T08:09:04;101182.75;;;15.28;58.97
13050;BME280;6591;51.446;5.404;2023-11-21T08:11:31;101185.16;;;15.33;59.03
13050;BME280;6591;51.446;5.404;2023-11-21T08:14:00;101185.72;;;15.38;58.98
13050;BME280;6591;51.446;5.404;2023-11-21T08:16:27;101187.19;;;15.43;59.15
13050;BME280;6591;51.446;5.404;2023-11-21T08:18:54;101184.22;;;15.48;58.44
13050;BME280;6591;51.446;5.404;2023-11-21T08:21:22;101185.84;;;15.50;58.72
13050;BME280;6591;51.446;5.404;2023-11-21T08:23:51;101191.13;;;15.52;58.58
13050;BME280;6591;51.446;5.404;2023-11-21T08:26:22;101195.47;;;15.54;58.41
13050;BME280;6591;51.446;5.404;2023-11-21T08:28:49;101197.06;;;15.57;58.54
13050;BME280;6591;51.446;5.404;2023-11-21T08:31:26;101205.88;;;15.59;58.14
13050;BME280;6591;51.446;5.404;2023-11-21T08:33:54;101210.09;;;15.63;58.59
13050;BME280;6591;51.446;5.404;2023-11-21T08:36:25;101222.34;;;15.67;58.94
13050;BME280;6591;51.446;5.404;2023-11-21T08:38:53;101220.25;;;15.72;58.46
13050;BME280;6591;51.446;5.404;2023-11-21T08:41:20;101219.97;;;15.77;59.01
13050;BME280;6591;51.446;5.404;2023-11-21T08:43:50;101226.75;;;15.82;58.26
13050;BME280;6591;51.446;5.404;2023-11-21T08:46:18;101220.16;;;15.88;58.47
13050;BME280;6591;51.446;5.404;2023-11-21T08:48:46;101220.00;;;15.91;58.81
13050;BME280;6591;51.446;5.404;2023-11-21T08:51:14;101227.63;;;15.97;58.91
13050;BME280;6591;51.446;5.404;2023-11-21T08:53:41;101222.09;;;16.00;58.61
13050;BME280;6591;51.446;5.404;2023-11-21T08:56:15;101234.34;;;16.04;58.50
13050;BME280;6591;51.446;5.404;2023-11-21T08:58:42;101234.06;;;16.08;58.54
13050;BME280;6591;51.446;5.404;2023-11-21T09:01:09;101233.88;;;16.12;58.49
13050;BME280;6591;51.446;5.404;2023-11-21T09:03:37;101228.31;;;16.15;58.63
13050;BME280;6591;51.446;5.404;2023-11-21T09:06:06;101236.72;;;16.23;58.74
13050;BME280;6591;51.446;5.404;2023-11-21T09:08:33;101234.63;;;16.28;58.85
13050;BME280;6591;51.446;5.404;2023-11-21T09:11:00;101238.75;;;16.33;58.74
13050;BME280;6591;51.446;5.404;2023-11-21T09:13:27;101236.53;;;16.40;58.72
13050;BME280;6591;51.446;5.404;2023-11-21T09:15:55;101246.09;;;16.44;58.67
13050;BME280;6591;51.446;5.404;2023-11-21T09:18:22;101243.25;;;16.47;58.66
13050;BME280;6591;51.446;5.404;2023-11-21T09:20:49;101244.69;;;16.52;58.29
13050;BME280;6591;51.446;5.404;2023-11-21T09:23:16;101253.38;;;16.56;58.58
13050;BME280;6591;51.446;5.404;2023-11-21T09:25:43;101254.06;;;16.60;58.67
13050;BME280;6591;51.446;5.404;2023-11-21T09:28:13;101253.88;;;16.63;58.36
13050;BME280;6591;51.446;5.404;2023-11-21T09:30:40;101259.16;;;16.64;58.55
13050;BME280;6591;51.446;5.404;2023-11-21T09:33:07;101262.50;;;16.68;58.45
13050;BME280;6591;51.446;5.404;2023-11-21T09:35:38;101275.69;;;16.71;58.51
13050;BME280;6591;51.446;5.404;2023-11-21T09:38:05;101278.19;;;16.74;58.22
13050;BME280;6591;51.446;5.404;2023-11-21T09:40:37;101287.84;;;16.76;58.28
13050;BME280;6591;51.446;5.404;2023-11-21T09:43:17;101284.31;;;16.76;58.48
13050;BME280;6591;51.446;5.404;2023-11-21T09:45:59;101283.28;;;16.78;58.84
13050;BME280;6591;51.446;5.404;2023-11-21T09:48:29;101289.19;;;16.83;59.03
13050;BME280;6591;51.446;5.404;2023-11-21T09:50:59;101295.13;;;16.88;58.83
13050;BME280;6591;51.446;5.404;2023-11-21T09:53:30;101300.19;;;16.93;58.77
13050;BME280;6591;51.446;5.404;2023-11-21T09:55:59;101303.53;;;16.97;58.88
13050;BME280;6591;51.446;5.404;2023-11-21T09:58:29;101312.34;;;16.99;58.64
13050;BME280;6591;51.446;5.404;2023-11-21T10:00:59;101307.84;;;16.99;58.34
13050;BME280;6591;51.446;5.404;2023-11-21T10:03:30;101310.31;;;17.02;58.43
13050;BME280;6591;51.446;5.404;2023-11-21T10:05:58;101315.38;;;17.07;58.83
13050;BME280;6591;51.446;5.404;2023-11-21T10:08:27;101312.31;;;17.13;58.97
13050;BME280;6591;51.446;5.404;2023-11-21T10:11:15;101316.13;;;17.23;59.41
13050;BME280;6591;51.446;5.404;2023-11-21T10:13:46;101320.13;;;17.30;59.25
13050;BME280;6591;51.446;5.404;2023-11-21T10:16:19;101327.78;;;17.36;59.26
13050;BME280;6591;51.446;5.404;2023-11-21T10:18:52;101324.28;;;17.48;59.09
13050;BME280;6591;51.446;5.404;2023-11-21T10:21:40;101327.81;;;17.63;59.61
13050;BME280;6591;51.446;5.404;2023-11-21T10:24:07;101322.38;;;17.77;59.61
13050;BME280;6591;51.446;5.404;2023-11-21T10:26:35;101329.28;;;17.94;59.72
13050;BME280;6591;51.446;5.404;2023-11-21T10:29:16;101330.94;;;18.09;59.43
13050;BME280;6591;51.446;5.404;2023-11-21T10:31:45;101337.28;;;18.20;59.49
13050;BME280;6591;51.446;5.404;2023-11-21T10:34:18;101335.78;;;18.29;59.01
13050;BME280;6591;51.446;5.404;2023-11-21T10:36:46;101334.94;;;18.41;59.06
13050;BME280;6591;51.446;5.404;2023-11-21T10:39:20;101330.81;;;18.48;58.61
13050;BME280;6591;51.446;5.404;2023-11-21T10:41:48;101334.84;;;18.55;58.67
13050;BME280;6591;51.446;5.404;2023-11-21T10:44:17;101334.50;;;18.60;58.56
13050;BME280;6591;51.446;5.404;2023-11-21T10:46:53;101339.56;;;18.65;58.59
13050;BME280;6591;51.446;5.404;2023-11-21T10:49:25;101329.47;;;18.68;58.73
13050;BME280;6591;51.446;5.404;2023-11-21T10:51:56;101328.28;;;18.72;58.76
13050;BME280;6591;51.446;5.404;2023-11-21T10:54:25;101335.25;;;18.75;58.44
13050;BME280;6591;51.446;5.404;2023-11-21T10:57:01;101346.78;;;18.77;58.23
13050;BME280;6591;51.446;5.404;2023-11-21T10:59:31;101334.19;;;18.77;58.36
13050;BME280;6591;51.446;5.404;2023-11-21T11:02:01;101330.41;;;18.80;58.28
13050;BME280;6591;51.446;5.404;2023-11-21T11:04:32;101335.69;;;18.81;58.59
13050;BME280;6591;51.446;5.404;2023-11-21T11:07:05;101348.06;;;18.84;58.46
13050;BME280;6591;51.446;5.404;2023-11-21T11:09:36;101344.50;;;18.83;58.27
13050;BME280;6591;51.446;5.404;2023-11-21T11:12:04;101345.69;;;18.79;58.06
13050;BME280;6591;51.446;5.404;2023-11-21T11:14:32;101343.56;;;18.72;57.66
13050;BME280;6591;51.446;5.404;2023-11-21T11:17:01;101360.13;;;18.66;57.73
13050;BME280;6591;51.446;5.404;2023-11-21T11:19:29;101360.34;;;18.63;57.83
13050;BME280;6591;51.446;5.404;2023-11-21T11:22:24;101357.38;;;18.53;57.96
13050;BME280;6591;51.446;5.404;2023-11-21T11:28:15;101367.19;;;18.41;57.96
13050;BME280;6591;51.446;5.404;2023-11-21T11:33:56;101376.09;;;18.29;57.70
13050;BME280;6591;51.446;5.404;2023-11-21T11:36:54;101375.13;;;18.17;57.86
13050;BME280;6591;51.446;5.404;2023-11-21T11:39:38;101375.25;;;18.16;58.12
13050;BME280;6591;51.446;5.404;2023-11-21T11:42:11;101380.63;;;18.16;58.24
13050;BME280;6591;51.446;5.404;2023-11-21T11:47:23;101369.28;;;18.11;58.23
13050;BME280;6591;51.446;5.404;2023-11-21T11:50:09;101389.09;;;18.10;58.54
13050;BME280;6591;51.446;5.404;2023-11-21T11:52:51;101383.72;;;18.10;58.31
13050;BME280;6591;51.446;5.404;2023-11-21T11:55:21;101386.41;;;18.10;57.99
13050;BME280;6591;51.446;5.404;2023-11-21T11:57:54;101392.94;;;18.06;58.00
13050;BME280;6591;51.446;5.404;2023-11-21T12:03:04;101407.78;;;17.99;57.95
13050;BME280;6591;51.446;5.404;2023-11-21T12:05:34;101413.31;;;17.96;58.03
13050;BME280;6591;51.446;5.404;2023-11-21T12:08:11;101418.06;;;17.92;58.04
13050;BME280;6591;51.446;5.404;2023-11-21T12:10:39;101427.28;;;17.88;58.13
13050;BME280;6591;51.446;5.404;2023-11-21T12:13:10;101423.19;;;17.83;57.96
13050;BME280;6591;51.446;5.404;2023-11-21T12:15:39;101429.59;;;17.80;58.00
13050;BME280;6591;51.446;5.404;2023-11-21T12:18:08;101423.59;;;17.76;58.11
13050;BME280;6591;51.446;5.404;2023-11-21T12:20:36;101429.91;;;17.75;58.37
13050;BME280;6591;51.446;5.404;2023-11-21T12:23:07;101436.25;;;17.74;58.32
13050;BME280;6591;51.446;5.404;2023-11-21T12:25:36;101433.69;;;17.73;58.17
13050;BME280;6591;51.446;5.404;2023-11-21T12:28:04;101439.91;;;17.73;58.28
13050;BME280;6591;51.446;5.404;2023-11-21T12:30:35;101438.28;;;17.71;58.37
13050;BME280;6591;51.446;5.404;2023-11-21T12:33:06;101442.59;;;17.73;58.11
13050;BME280;6591;51.446;5.404;2023-11-21T12:35:36;101439.91;;;17.73;58.29
13050;BME280;6591;51.446;5.404;2023-11-21T12:38:05;101451.53;;;17.74;58.42
13050;BME280;6591;51.446;5.404;2023-11-21T12:40:33;101444.53;;;17.71;57.94
13050;BME280;6591;51.446;5.404;2023-11-21T12:43:01;101446.16;;;17.74;58.72
13050;BME280;6591;51.446;5.404;2023-11-21T12:45:31;101443.34;;;17.75;58.47
13050;BME280;6591;51.446;5.404;2023-11-21T12:48:03;101447.66;;;17.78;58.45
13050;BME280;6591;51.446;5.404;2023-11-21T12:50:36;101450.06;;;17.83;58.44
13050;BME280;6591;51.446;5.404;2023-11-21T12:53:08;101450.06;;;17.83;58.29
13050;BME280;6591;51.446;5.404;2023-11-21T12:55:37;101455.22;;;17.86;58.35
13050;BME280;6591;51.446;5.404;2023-11-21T12:58:08;101454.25;;;17.87;58.39
13050;BME280;6591;51.446;5.404;2023-11-21T13:00:40;101453.31;;;17.88;58.26
13050;BME280;6591;51.446;5.404;2023-11-21T13:03:12;101455.03;;;17.89;57.78
13050;BME280;6591;51.446;5.404;2023-11-21T13:05:47;101464.81;;;17.90;58.05
13050;BME280;6591;51.446;5.404;2023-11-21T13:08:21;101457.72;;;17.89;57.77
13050;BME280;6591;51.446;5.404;2023-11-21T13:10:56;101456.94;;;17.87;57.82
13050;BME280;6591;51.446;5.404;2023-11-21T13:13:28;101466.19;;;17.83;57.56
13050;BME280;6591;51.446;5.404;2023-11-21T13:16:00;101466.56;;;17.76;57.68
13050;BME280;6591;51.446;5.404;2023-11-21T13:18:29;101466.78;;;17.73;57.41
13050;BME280;6591;51.446;5.404;2023-11-21T13:21:03;101475.16;;;17.69;57.67